Terminal Aerodrome Forecast
Issued by NWS

Current Version | Previous Version | Graphics & Text | Print | Product List | Glossary On
Versions: 1 2 3 4 5 6 7 8 9 10 11 12 13 14 15 16 17
000
FTUS41 KILN 191100
TAFLCK
TAF
KLCK 191130Z 1912/2012 30003KT P6SM SCT015 OVC025
     FM192100 VRB03KT P6SM OVC035
     FM200600 00000KT P6SM OVC025=

USA.gov is the U.S. government's official web portal to all federal, state and local government web resources and services.